createdAt,value
2023-04-02T00:01:38.133Z,3.90
2023-04-02T00:04:26.898Z,3.90
2023-04-02T00:07:34.384Z,4.00
2023-04-02T00:10:04.612Z,4.00
2023-04-02T00:12:33.131Z,4.00
2023-04-02T00:15:01.451Z,4.00
2023-04-02T00:17:28.938Z,3.90
2023-04-02T00:20:20.035Z,4.00
2023-04-02T00:22:50.472Z,4.00
2023-04-02T00:25:18.042Z,4.00
2023-04-02T00:27:46.746Z,3.90
2023-04-02T00:30:18.249Z,4.00
2023-04-02T00:32:49.311Z,4.00
2023-04-02T00:35:29.413Z,4.00
2023-04-02T00:37:57.935Z,3.90
2023-04-02T00:40:34.918Z,4.00
2023-04-02T00:43:05.476Z,3.90
2023-04-02T00:45:38.756Z,4.00
2023-04-02T00:48:46.122Z,4.10
2023-04-02T00:51:58.591Z,4.10
2023-04-02T00:54:43.082Z,3.90
2023-04-02T00:57:28.323Z,3.80
2023-04-02T01:00:00.880Z,4.10
2023-04-02T01:02:36.977Z,4.00
2023-04-02T01:05:23.699Z,4.10
2023-04-02T01:08:25.987Z,4.00
2023-04-02T01:11:05.121Z,3.90
2023-04-02T01:13:41.558Z,4.00
2023-04-02T01:17:03.548Z,4.00
2023-04-02T01:20:14.752Z,4.20
2023-04-02T01:23:36.022Z,4.20
2023-04-02T01:26:51.868Z,3.90
2023-04-02T01:29:50.104Z,4.10
2023-04-02T01:32:26.654Z,4.10
2023-04-02T01:34:55.789Z,4.10
2023-04-02T01:38:03.660Z,4.10
2023-04-02T01:41:09.077Z,4.10
2023-04-02T01:44:21.590Z,4.10
2023-04-02T01:46:52.700Z,4.00
2023-04-02T01:49:24.767Z,4.00
2023-04-02T01:52:09.131Z,4.00
2023-04-02T01:54:42.025Z,3.90
2023-04-02T01:57:35.859Z,3.90
2023-04-02T02:00:12.667Z,3.90
2023-04-02T02:02:47.410Z,3.70
2023-04-02T02:05:23.099Z,3.70
2023-04-02T02:07:54.817Z,3.80
2023-04-02T02:10:42.303Z,3.80
2023-04-02T02:13:16.912Z,3.70
2023-04-02T02:15:48.200Z,3.70
2023-04-02T02:18:25.828Z,3.80
2023-04-02T02:21:11.092Z,3.80
2023-04-02T02:23:42.020Z,3.80
2023-04-02T02:26:29.169Z,3.80
2023-04-02T02:32:00.078Z,3.80
2023-04-02T02:34:47.956Z,3.70
2023-04-02T02:37:31.089Z,3.80
2023-04-02T02:40:16.467Z,3.70
2023-04-02T02:42:57.001Z,3.80
2023-04-02T02:45:37.847Z,3.80
2023-04-02T02:48:20.125Z,4.00
2023-04-02T02:50:51.277Z,3.90
2023-04-02T02:53:26.602Z,3.70
2023-04-02T02:56:01.825Z,3.90
2023-04-02T02:58:35.965Z,4.10
2023-04-02T03:01:24.671Z,4.10
2023-04-02T03:03:55.626Z,4.00
2023-04-02T03:06:31.245Z,3.70
2023-04-02T03:09:47.698Z,4.00
2023-04-02T03:13:07.144Z,3.90
2023-04-02T03:16:08.729Z,3.90
2023-04-02T03:19:55.285Z,4.10
2023-04-02T03:22:39.374Z,4.10
2023-04-02T03:25:43.115Z,4.00
2023-04-02T03:28:28.988Z,4.00
2023-04-02T03:31:25.484Z,3.90
2023-04-02T03:34:23.183Z,4.10
2023-04-02T03:37:14.496Z,4.10
2023-04-02T03:40:09.455Z,4.00
2023-04-02T03:42:54.566Z,3.90
2023-04-02T03:45:38.550Z,3.90
2023-04-02T03:48:39.094Z,3.70
2023-04-02T03:52:13.763Z,3.90
2023-04-02T03:54:54.030Z,3.90
2023-04-02T03:57:53.335Z,4.00
2023-04-02T04:00:52.779Z,4.00
2023-04-02T04:03:44.601Z,4.00
2023-04-02T04:06:29.564Z,4.00
2023-04-02T04:09:39.451Z,4.10
2023-04-02T04:12:48.413Z,3.70
2023-04-02T04:15:36.817Z,4.10
2023-04-02T04:18:47.556Z,4.00
2023-04-02T04:21:37.658Z,4.00
2023-04-02T04:24:24.157Z,4.10
2023-04-02T04:27:56.018Z,4.20
2023-04-02T04:30:50.981Z,4.10
2023-04-02T04:33:44.048Z,3.80
2023-04-02T04:36:56.699Z,3.90
2023-04-02T04:39:59.332Z,4.00
2023-04-02T04:42:37.653Z,3.90
2023-04-02T04:45:39.778Z,3.90
2023-04-02T04:48:23.895Z,4.00
2023-04-02T04:51:06.117Z,3.80
2023-04-02T04:53:55.104Z,3.80
2023-04-02T04:56:44.204Z,4.00
2023-04-02T04:59:55.380Z,4.00
2023-04-02T05:02:57.889Z,4.00
2023-04-02T05:05:37.198Z,4.00
2023-04-02T05:08:29.088Z,4.20
2023-04-02T05:11:12.565Z,4.30
2023-04-02T05:14:00.239Z,4.30
2023-04-02T05:16:49.210Z,4.00
2023-04-02T05:19:48.596Z,4.00
2023-04-02T05:22:52.486Z,4.00
2023-04-02T05:25:33.373Z,4.10
2023-04-02T05:28:21.178Z,4.10
2023-04-02T05:31:04.682Z,4.10
2023-04-02T05:33:37.806Z,3.90
2023-04-02T05:36:21.453Z,4.00
2023-04-02T05:38:54.755Z,4.00
2023-04-02T05:41:49.011Z,4.20
2023-04-02T05:44:41.006Z,4.40
2023-04-02T05:47:33.959Z,4.20
2023-04-02T05:50:08.698Z,4.00
2023-04-02T05:52:53.660Z,4.10
2023-04-02T05:55:51.180Z,4.10
2023-04-02T05:58:45.484Z,4.00
2023-04-02T06:02:07.234Z,3.80
2023-04-02T06:05:02.415Z,4.00
2023-04-02T06:08:21.391Z,4.10
2023-04-02T06:11:27.960Z,4.20
2023-04-02T06:13:57.809Z,4.30
2023-04-02T06:16:32.001Z,4.20
2023-04-02T06:19:00.025Z,4.30
2023-04-02T06:21:32.886Z,4.20
2023-04-02T06:24:11.820Z,4.20
2023-04-02T06:26:57.678Z,4.30
2023-04-02T06:29:40.418Z,4.30
2023-04-02T06:32:13.355Z,4.50
2023-04-02T06:34:45.838Z,4.30
2023-04-02T06:37:42.467Z,4.20
2023-04-02T06:40:44.671Z,4.50
2023-04-02T06:43:56.897Z,4.60
2023-04-02T06:47:02.868Z,4.60
2023-04-02T06:49:47.013Z,4.50
2023-04-02T06:52:36.579Z,4.70
2023-04-02T06:55:50.517Z,4.70
2023-04-02T06:58:23.156Z,4.90
2023-04-02T07:00:53.110Z,4.80
2023-04-02T07:03:43.918Z,4.90
2023-04-02T07:06:25.295Z,4.70
2023-04-02T07:08:58.916Z,4.50
2023-04-02T07:11:27.079Z,4.50
2023-04-02T07:13:57.989Z,4.50
2023-04-02T07:16:31.757Z,4.80
2023-04-02T07:19:06.817Z,4.80
2023-04-02T07:21:39.567Z,4.80
2023-04-02T07:24:07.266Z,4.80
2023-04-02T07:26:40.533Z,5.10
2023-04-02T07:29:16.619Z,4.90
2023-04-02T07:32:01.923Z,4.90
2023-04-02T07:34:41.825Z,5.00
2023-04-02T07:40:21.906Z,5.20
2023-04-02T07:42:49.993Z,5.20
2023-04-02T07:45:23.567Z,5.40
2023-04-02T07:47:52.650Z,5.50
2023-04-02T07:50:24.145Z,5.50
2023-04-02T07:52:54.582Z,5.40
2023-04-02T07:55:21.780Z,5.60
2023-04-02T07:58:00.939Z,5.40
2023-04-02T08:00:31.306Z,5.10
2023-04-02T08:02:59.020Z,5.20
2023-04-02T08:05:30.214Z,5.40
2023-04-02T08:08:01.523Z,5.00
2023-04-02T08:10:31.353Z,5.20
2023-04-02T08:13:07.470Z,5.30
2023-04-02T08:15:35.457Z,5.60
2023-04-02T08:18:03.558Z,5.30
2023-04-02T08:20:30.970Z,5.40
2023-04-02T08:23:01.022Z,5.40
2023-04-02T08:25:29.066Z,5.40
2023-04-02T08:27:57.064Z,5.50
2023-04-02T08:30:25.600Z,5.40
2023-04-02T08:32:53.283Z,5.40
2023-04-02T08:35:21.124Z,5.20
2023-04-02T08:37:51.387Z,5.30
2023-04-02T08:40:33.271Z,5.50
2023-04-02T08:43:25.131Z,5.50
2023-04-02T08:46:20.572Z,5.40
2023-04-02T08:49:02.997Z,5.30
2023-04-02T08:51:37.919Z,5.40
2023-04-02T08:54:45.306Z,5.10
2023-04-02T08:57:34.793Z,5.10
2023-04-02T09:00:39.325Z,5.20
2023-04-02T09:03:27.630Z,5.10
2023-04-02T09:06:00.092Z,5.20
2023-04-02T09:08:32.649Z,5.30
2023-04-02T09:11:19.865Z,5.30
2023-04-02T09:14:06.188Z,5.40
2023-04-02T09:17:15.380Z,5.80
2023-04-02T09:20:12.986Z,5.80
2023-04-02T09:22:45.010Z,6.10
2023-04-02T09:25:36.079Z,6.70
2023-04-02T09:28:06.053Z,6.40
2023-04-02T09:31:01.975Z,6.80
2023-04-02T09:34:23.397Z,6.80
2023-04-02T09:37:07.196Z,6.70
2023-04-02T09:39:35.682Z,6.70
2023-04-02T09:42:29.355Z,7.20
2023-04-02T09:45:24.007Z,7.10
2023-04-02T09:48:00.507Z,7.80
2023-04-02T09:50:34.650Z,8.00
2023-04-02T09:53:45.923Z,8.00
2023-04-02T09:56:58.685Z,8.50
2023-04-02T09:59:39.308Z,7.70
2023-04-02T10:02:30.645Z,7.30
2023-04-02T10:05:06.583Z,7.20
2023-04-02T10:07:53.284Z,7.30
2023-04-02T10:11:14.594Z,7.20
2023-04-02T10:14:27.506Z,7.10
2023-04-02T10:17:38.540Z,7.00
2023-04-02T10:20:48.561Z,7.40
2023-04-02T10:23:52.803Z,7.50
2023-04-02T10:31:03.920Z,7.60
2023-04-02T10:34:27.453Z,7.30
2023-04-02T10:37:52.539Z,7.50
2023-04-02T10:40:32.422Z,7.50
2023-04-02T10:44:12.721Z,8.00
2023-04-02T10:47:22.593Z,8.40
2023-04-02T10:51:00.564Z,9.20
2023-04-02T10:54:27.782Z,8.30
2023-04-02T10:57:24.910Z,8.30
2023-04-02T11:00:31.407Z,8.20
2023-04-02T11:03:09.073Z,7.80
2023-04-02T11:06:00.444Z,7.70
2023-04-02T11:08:50.505Z,8.00
2023-04-02T11:11:44.860Z,8.40
2023-04-02T11:14:32.929Z,8.10
2023-04-02T11:17:09.594Z,7.80
2023-04-02T11:19:37.883Z,7.80
2023-04-02T11:22:23.822Z,7.80
2023-04-02T11:25:02.066Z,7.80
2023-04-02T11:27:37.236Z,7.50
2023-04-02T11:30:28.300Z,7.80
2023-04-02T11:33:46.156Z,7.50
2023-04-02T11:36:57.201Z,8.30
2023-04-02T11:39:58.569Z,9.20
2023-04-02T11:42:41.927Z,9.40
2023-04-02T11:45:46.462Z,9.30
2023-04-02T11:48:48.589Z,8.60
2023-04-02T11:51:22.825Z,9.50
2023-04-02T11:53:58.524Z,9.60
2023-04-02T11:56:59.062Z,9.70
2023-04-02T12:00:29.047Z,9.50
2023-04-02T12:04:13.839Z,9.00
2023-04-02T12:06:54.671Z,8.80
2023-04-02T12:09:29.331Z,8.80
2023-04-02T12:12:28.712Z,8.50
2023-04-02T12:15:18.776Z,8.80
2023-04-02T12:17:54.969Z,9.20
2023-04-02T12:20:35.950Z,9.00
2023-04-02T12:23:04.348Z,9.10
2023-04-02T12:25:45.496Z,8.80
2023-04-02T12:28:19.797Z,8.80
2023-04-02T12:31:04.592Z,8.90
2023-04-02T12:33:41.552Z,8.70
2023-04-02T12:36:15.478Z,9.60
2023-04-02T12:38:59.004Z,9.70
2023-04-02T12:41:37.247Z,9.10
2023-04-02T12:44:38.320Z,9.50
2023-04-02T12:47:06.598Z,10.10
2023-04-02T12:49:56.162Z,10.40
2023-04-02T12:52:28.934Z,10.60
2023-04-02T12:55:24.729Z,9.80
2023-04-02T12:58:29.896Z,9.20
2023-04-02T13:01:37.363Z,9.10
2023-04-02T13:04:16.797Z,9.20
2023-04-02T13:07:04.378Z,10.30
2023-04-02T13:09:59.009Z,10.40
2023-04-02T13:15:40.081Z,10.60
2023-04-02T13:18:14.437Z,9.70
2023-04-02T13:21:08.547Z,9.50
2023-04-02T13:23:49.186Z,9.20
2023-04-02T13:27:23.334Z,8.80
2023-04-02T13:30:43.910Z,9.40
2023-04-02T13:33:20.672Z,9.60
2023-04-02T13:35:58.182Z,9.30
2023-04-02T13:38:57.311Z,9.60
2023-04-02T13:41:34.344Z,10.20
2023-04-02T13:44:14.928Z,10.20
2023-04-02T13:46:42.666Z,9.80
2023-04-02T13:49:11.898Z,9.40
2023-04-02T13:51:58.030Z,9.40
2023-04-02T13:55:12.746Z,9.30
2023-04-02T13:58:00.508Z,9.20
2023-04-02T14:00:37.895Z,8.90
2023-04-02T14:03:30.047Z,8.70
2023-04-02T14:06:30.088Z,9.00
2023-04-02T14:09:33.487Z,9.20
2023-04-02T14:13:05.206Z,9.00
2023-04-02T14:16:44.212Z,8.80
2023-04-02T14:19:38.308Z,9.00
2023-04-02T14:22:51.432Z,9.90
2023-04-02T14:26:05.559Z,9.80
2023-04-02T14:29:28.868Z,9.60
2023-04-02T14:32:22.066Z,9.90
2023-04-02T14:40:49.490Z,9.70
2023-04-02T14:43:35.442Z,8.30
2023-04-02T14:46:37.464Z,9.10
2023-04-02T14:49:58.934Z,8.90
2023-04-02T14:52:36.438Z,9.10
2023-04-02T14:55:26.433Z,9.30
2023-04-02T14:58:11.796Z,9.60
2023-04-02T15:01:42.788Z,10.20
2023-04-02T15:04:59.599Z,9.30
2023-04-02T15:08:16.779Z,9.00
2023-04-02T15:11:32.973Z,8.90
2023-04-02T15:14:47.830Z,8.60
2023-04-02T15:17:21.431Z,8.30
2023-04-02T15:20:06.105Z,8.50
2023-04-02T15:23:16.067Z,8.90
2023-04-02T15:26:16.493Z,9.40
2023-04-02T15:29:29.046Z,8.70
2023-04-02T15:32:38.642Z,9.00
2023-04-02T15:36:02.476Z,8.40
2023-04-02T15:39:18.264Z,7.90
2023-04-02T15:42:22.732Z,7.90
2023-04-02T15:45:08.268Z,8.00
2023-04-02T15:48:11.517Z,8.20
2023-04-02T15:51:32.979Z,8.70
2023-04-02T15:54:42.310Z,8.80
2023-04-02T15:57:58.357Z,9.80
2023-04-02T16:00:36.684Z,9.20
2023-04-02T16:03:43.454Z,8.90
2023-04-02T16:06:35.456Z,8.60
2023-04-02T16:09:32.644Z,8.60
2023-04-02T16:12:20.520Z,8.80
2023-04-02T16:14:51.527Z,8.60
2023-04-02T16:17:40.805Z,8.60
2023-04-02T16:20:39.390Z,8.40
2023-04-02T16:23:40.238Z,8.10
2023-04-02T16:26:26.619Z,7.80
2023-04-02T16:29:53.892Z,7.90
2023-04-02T16:33:03.261Z,7.80
2023-04-02T16:36:20.077Z,7.70
2023-04-02T16:39:37.504Z,7.20
2023-04-02T16:42:51.751Z,7.60
2023-04-02T16:45:51.096Z,7.50
2023-04-02T16:48:41.737Z,7.20
2023-04-02T16:51:32.268Z,7.30
2023-04-02T16:54:54.875Z,7.20
2023-04-02T16:58:50.634Z,6.90
2023-04-02T17:02:02.335Z,6.80
2023-04-02T17:05:17.306Z,6.80
2023-04-02T17:08:24.825Z,6.90
2023-04-02T17:11:17.939Z,7.00
2023-04-02T17:14:15.361Z,6.70
2023-04-02T17:16:51.067Z,6.80
2023-04-02T17:19:27.847Z,6.50
2023-04-02T17:22:04.746Z,6.50
2023-04-02T17:25:07.803Z,6.40
2023-04-02T17:27:48.950Z,6.40
2023-04-02T17:30:38.210Z,6.40
2023-04-02T17:33:19.148Z,6.50
2023-04-02T17:35:55.506Z,6.30
2023-04-02T17:39:03.161Z,6.20
2023-04-02T17:42:03.565Z,6.20
2023-04-02T17:45:13.669Z,6.20
2023-04-02T17:48:31.227Z,6.10
2023-04-02T17:51:10.719Z,6.10
2023-04-02T17:54:14.036Z,6.00
2023-04-02T17:57:12.003Z,5.80
2023-04-02T18:00:10.686Z,5.90
2023-04-02T18:03:41.210Z,5.90
2023-04-02T18:06:31.323Z,5.70
2023-04-02T18:09:29.112Z,5.60
2023-04-02T18:12:53.309Z,5.70
2023-04-02T18:15:45.679Z,5.50
2023-04-02T18:18:31.207Z,5.40
2023-04-02T18:21:44.640Z,5.50
2023-04-02T18:24:58.576Z,5.50
2023-04-02T18:27:37.630Z,5.40
2023-04-02T18:30:09.280Z,5.40
2023-04-02T18:33:20.828Z,5.20
2023-04-02T18:36:17.105Z,5.30
2023-04-02T18:39:37.627Z,5.30
2023-04-02T18:42:53.637Z,5.10
2023-04-02T18:45:51.940Z,5.10
2023-04-02T18:48:46.553Z,5.00
2023-04-02T18:51:25.900Z,4.90
2023-04-02T18:54:09.470Z,5.00
2023-04-02T18:56:41.409Z,5.10
2023-04-02T18:59:37.985Z,4.90
2023-04-02T19:02:39.977Z,5.00
2023-04-02T19:05:45.006Z,5.00
2023-04-02T19:08:38.484Z,5.10
2023-04-02T19:11:17.127Z,5.30
2023-04-02T19:13:51.911Z,4.80
2023-04-02T19:16:24.912Z,4.90
2023-04-02T19:19:22.673Z,4.70
2023-04-02T19:22:19.770Z,4.80
2023-04-02T19:25:51.174Z,4.40
2023-04-02T19:28:40.166Z,4.40
2023-04-02T19:31:41.784Z,4.20
2023-04-02T19:34:39.178Z,4.30
2023-04-02T19:37:22.843Z,4.40
2023-04-02T19:40:36.349Z,4.40
2023-04-02T19:43:04.482Z,4.30
2023-04-02T19:45:46.839Z,4.30
2023-04-02T19:48:21.041Z,4.20
2023-04-02T19:50:49.454Z,4.10
2023-04-02T19:53:19.240Z,4.00
2023-04-02T19:55:47.258Z,4.00
2023-04-02T19:58:32.972Z,3.90
2023-04-02T20:01:05.573Z,3.90
2023-04-02T20:03:35.206Z,3.80
2023-04-02T20:06:05.412Z,3.90
2023-04-02T20:08:34.330Z,4.00
2023-04-02T20:11:04.430Z,3.80
2023-04-02T20:13:52.871Z,3.90
2023-04-02T20:16:22.791Z,4.00
2023-04-02T20:18:52.979Z,3.80
2023-04-02T20:21:21.783Z,3.70
2023-04-02T20:23:57.453Z,3.70
2023-04-02T20:26:27.958Z,3.60
2023-04-02T20:29:02.269Z,3.60
2023-04-02T20:31:32.999Z,3.50
2023-04-02T20:34:02.797Z,3.60
2023-04-02T20:36:30.954Z,3.50
2023-04-02T20:38:58.792Z,3.30
2023-04-02T20:41:28.874Z,3.30
2023-04-02T20:43:59.344Z,3.40
2023-04-02T20:46:27.103Z,3.50
2023-04-02T20:48:55.150Z,3.40
2023-04-02T20:51:22.840Z,3.30
2023-04-02T20:53:53.517Z,3.20
2023-04-02T20:56:26.673Z,3.40
2023-04-02T20:59:00.578Z,3.20
2023-04-02T21:01:31.172Z,3.30
2023-04-02T21:04:14.884Z,3.40
2023-04-02T21:09:55.198Z,3.30
2023-04-02T21:12:24.871Z,3.00
2023-04-02T21:15:02.215Z,3.20
2023-04-02T21:17:34.254Z,3.20
2023-04-02T21:20:04.702Z,3.30
2023-04-02T21:22:36.287Z,3.10
2023-04-02T21:25:03.970Z,3.10
2023-04-02T21:27:31.361Z,3.10
2023-04-02T21:29:58.738Z,3.20
2023-04-02T21:32:26.618Z,3.20
2023-04-02T21:35:00.467Z,3.10
2023-04-02T21:37:42.650Z,2.90
2023-04-02T21:40:39.987Z,2.80
2023-04-02T21:43:15.554Z,2.90
2023-04-02T21:45:48.477Z,2.90
2023-04-02T21:48:18.712Z,3.00
2023-04-02T21:50:55.632Z,3.30
2023-04-02T21:53:25.441Z,3.20
2023-04-02T21:56:08.760Z,3.10
2023-04-02T21:58:44.506Z,3.20
2023-04-02T22:01:27.160Z,3.10
2023-04-02T22:04:03.943Z,3.00
2023-04-02T22:07:10.068Z,3.00
2023-04-02T22:10:02.737Z,3.00
2023-04-02T22:12:40.537Z,2.90
2023-04-02T22:15:18.709Z,2.90
2023-04-02T22:17:46.276Z,2.70
2023-04-02T22:20:19.845Z,2.70
2023-04-02T22:22:52.775Z,2.60
2023-04-02T22:25:24.005Z,2.70
2023-04-02T22:28:20.399Z,2.60
2023-04-02T22:30:49.289Z,2.40
2023-04-02T22:33:20.767Z,2.70
2023-04-02T22:36:01.237Z,2.70
2023-04-02T22:38:38.135Z,2.70
2023-04-02T22:41:14.558Z,2.60
2023-04-02T22:43:49.975Z,2.30
2023-04-02T22:46:31.218Z,2.30
2023-04-02T22:48:59.385Z,2.50
2023-04-02T22:51:35.020Z,2.40
2023-04-02T22:54:02.535Z,2.30
2023-04-02T22:56:38.742Z,2.40
2023-04-02T22:59:06.788Z,2.50
2023-04-02T23:01:39.491Z,2.60
2023-04-02T23:04:17.854Z,2.60
2023-04-02T23:06:55.927Z,2.60
2023-04-02T23:09:24.238Z,2.50
2023-04-02T23:11:56.631Z,2.30
2023-04-02T23:14:49.528Z,2.40
2023-04-02T23:17:16.974Z,2.50
2023-04-02T23:19:44.430Z,2.40
2023-04-02T23:22:16.844Z,2.50
2023-04-02T23:24:45.826Z,2.50
2023-04-02T23:27:14.315Z,2.60
2023-04-02T23:29:43.777Z,2.40
2023-04-02T23:32:21.019Z,2.50
2023-04-02T23:34:48.835Z,2.20
2023-04-02T23:37:16.740Z,2.30
2023-04-02T23:39:46.794Z,2.30
2023-04-02T23:42:16.320Z,2.30
2023-04-02T23:44:43.745Z,2.30
2023-04-02T23:47:14.354Z,2.40
2023-04-02T23:49:47.538Z,2.40
2023-04-02T23:52:18.291Z,2.30
2023-04-02T23:54:45.871Z,2.30
2023-04-02T23:57:14.964Z,2.30
2023-04-02T23:59:44.681Z,2.30
